Terminal Aerodrome Forecast
Issued by NWS

Home | Current Version | Previous Version | Text Only | Print | Product List | Glossary On
Versions: 1 2 3 4 5 6 7 8 9 10 11 12 13 14
000
FTUS42 TJSJ 230400 AAB
TAFJPS
TAF AMD
TJPS 230420Z 2304/2324 05002KT P6SM VCTS FEW020CB BKN040
      TEMPO 2304/2308 VRB12KT 6SM -TSRA BKN022CB
     FM230830 09005KT P6SM VCSH SCT022 BKN050
     FM231330 13011KT P6SM -RA SCT025 BKN070=

USA.gov is the U.S. government's official web portal to all federal, state and local government web resources and services.